Time;durP1;ratioP1;P1;durP2;ratioP2;P2;SDS_P1;SDS_P2;PMS_P1;PMS_P2;Temp;Humidity;BMP_temperature;BMP_pressure;BME280_temperature;BME280_humidity;BME280_pressure;Samples;Min_cycle;Max_cycle;Signal;HPM_P1;HPM_P2
2024/02/22 00:00:13;;;;;;;5.45;3.90;;;12.10;99.90;;;;;;5085578;28;20735;-77
2024/02/22 00:02:41;;;;;;;6.72;3.15;;;12.10;99.90;;;;;;5094933;28;20222;-77
2024/02/22 00:05:10;;;;;;;6.78;2.70;;;12.10;99.90;;;;;;5095141;28;20227;-78
2024/02/22 00:07:37;;;;;;;2.75;2.40;;;12.10;99.90;;;;;;5094873;28;20310;-78
2024/02/22 00:10:06;;;;;;;4.15;2.58;;;12.10;99.90;;;;;;5094598;28;20310;-77
2024/02/22 00:12:38;;;;;;;5.97;4.43;;;12.10;99.90;;;;;;5069722;28;20589;-78
2024/02/22 00:15:07;;;;;;;4.82;3.17;;;12.10;99.90;;;;;;5088073;28;20272;-77
2024/02/22 00:17:34;;;;;;;6.57;3.47;;;12.00;99.90;;;;;;5095100;28;20231;-77
2024/02/22 00:20:04;;;;;;;4.40;3.55;;;12.00;99.90;;;;;;5095504;28;20601;-77
2024/02/22 00:22:37;;;;;;;10.90;7.28;;;12.00;99.90;;;;;;5077244;28;20284;-77
2024/02/22 00:25:08;;;;;;;6.25;4.85;;;12.00;99.90;;;;;;5082900;28;20251;-78
2024/02/22 00:28:00;;;;;;;5.03;4.20;;;12.00;99.90;;;;;;5089788;28;20289;-78
2024/02/22 00:30:30;;;;;;;6.78;4.20;;;12.00;99.90;;;;;;5090862;28;20215;-77
2024/02/22 00:33:00;;;;;;;8.05;4.75;;;12.00;99.90;;;;;;5094361;28;20219;-78
2024/02/22 00:35:30;;;;;;;5.78;2.78;;;12.00;99.90;;;;;;5094234;28;20258;-77
2024/02/22 00:38:03;;;;;;;2.80;2.42;;;12.00;99.90;;;;;;5094954;28;20281;-77
2024/02/22 00:40:33;;;;;;;4.53;2.72;;;12.00;99.90;;;;;;5075192;28;20627;-78
2024/02/22 00:43:02;;;;;;;4.22;2.35;;;12.00;99.90;;;;;;5079498;28;20223;-78
2024/02/22 00:45:33;;;;;;;2.95;2.70;;;12.00;99.90;;;;;;5091401;28;20224;-78
2024/02/22 00:48:00;;;;;;;3.35;2.60;;;11.90;99.90;;;;;;5089000;28;20215;-78
2024/02/22 00:50:28;;;;;;;5.07;3.13;;;11.90;99.90;;;;;;5093358;28;20223;-78
2024/02/22 00:52:55;;;;;;;3.35;2.35;;;11.90;99.90;;;;;;5085488;28;20220;-78
2024/02/22 00:55:23;;;;;;;4.03;2.10;;;12.00;99.90;;;;;;5093269;28;20215;-78
2024/02/22 00:57:50;;;;;;;3.03;2.33;;;12.00;99.90;;;;;;5080948;28;20243;-77
2024/02/22 01:00:22;;;;;;;5.90;2.85;;;12.00;99.90;;;;;;5092660;28;20219;-78
2024/02/22 01:02:49;;;;;;;4.45;2.60;;;12.00;99.90;;;;;;5074186;28;20227;-78
2024/02/22 01:05:16;;;;;;;3.50;2.53;;;12.00;99.90;;;;;;5091239;28;20219;-78
2024/02/22 01:07:52;;;;;;;2.30;2.05;;;12.00;99.90;;;;;;5094520;28;20239;-77
2024/02/22 01:10:19;;;;;;;2.45;2.25;;;12.00;99.90;;;;;;5093804;28;20226;-77
2024/02/22 01:12:46;;;;;;;3.03;1.90;;;12.00;99.90;;;;;;5086205;28;20646;-78
2024/02/22 01:15:13;;;;;;;4.40;2.85;;;12.00;99.90;;;;;;5077930;28;20234;-77
2024/02/22 01:17:57;;;;;;;3.15;2.17;;;12.00;99.90;;;;;;5084768;28;20212;-78
2024/02/22 01:20:25;;;;;;;5.78;3.25;;;12.00;99.90;;;;;;5089831;28;20294;-78
2024/02/22 01:22:52;;;;;;;5.72;2.55;;;12.00;99.90;;;;;;5094693;28;20219;-78
2024/02/22 01:25:19;;;;;;;7.05;2.50;;;12.00;99.90;;;;;;5094681;28;20239;-78
2024/02/22 01:27:46;;;;;;;2.60;2.40;;;12.00;99.90;;;;;;5094295;28;20223;-78
2024/02/22 01:30:16;;;;;;;4.05;2.80;;;11.90;99.90;;;;;;5083957;28;20276;-77
2024/02/22 01:32:46;;;;;;;4.25;2.50;;;11.90;99.90;;;;;;5094069;28;20568;-77
2024/02/22 01:35:18;;;;;;;2.85;2.22;;;11.80;99.90;;;;;;5086630;28;20718;-79
2024/02/22 01:37:46;;;;;;;3.33;1.70;;;11.80;99.90;;;;;;5089090;28;20594;-78
2024/02/22 01:40:15;;;;;;;3.17;1.80;;;11.70;99.90;;;;;;5085300;28;20223;-77
2024/02/22 01:42:45;;;;;;;3.70;2.15;;;11.70;99.90;;;;;;5094113;28;20222;-78
2024/02/22 01:45:12;;;;;;;3.35;2.78;;;11.80;99.90;;;;;;5089785;28;20216;-77
2024/02/22 01:47:40;;;;;;;2.72;1.83;;;11.80;99.90;;;;;;5073045;28;20244;-78
2024/02/22 01:50:09;;;;;;;3.38;2.33;;;11.80;99.90;;;;;;5063895;28;20295;-78
2024/02/22 01:52:38;;;;;;;3.80;2.30;;;11.80;99.90;;;;;;5081562;28;20232;-77
2024/02/22 01:55:09;;;;;;;4.47;1.77;;;11.80;99.90;;;;;;5094479;28;20223;-75
2024/02/22 01:57:40;;;;;;;4.40;2.70;;;11.90;99.90;;;;;;5091134;28;20238;-78
2024/02/22 02:00:17;;;;;;;22.73;14.18;;;12.00;99.90;;;;;;5073757;28;20273;-77
2024/02/22 02:02:47;;;;;;;2.50;2.30;;;12.00;99.90;;;;;;5064158;28;20220;-78
2024/02/22 02:05:14;;;;;;;3.47;1.85;;;12.10;99.90;;;;;;5038126;28;20667;-78
2024/02/22 02:07:47;;;;;;;4.75;2.15;;;12.10;99.90;;;;;;5062063;28;20275;-77
2024/02/22 02:10:21;;;;;;;3.22;2.20;;;12.10;99.90;;;;;;5064265;28;20231;-77
2024/02/22 02:12:48;;;;;;;2.38;2.17;;;12.20;99.90;;;;;;5084714;28;20227;-77
2024/02/22 02:15:15;;;;;;;2.00;1.80;;;12.20;99.90;;;;;;5078911;28;20235;-77
2024/02/22 02:17:48;;;;;;;2.53;1.70;;;12.30;99.90;;;;;;5069329;28;20224;-77
2024/02/22 02:20:17;;;;;;;3.05;1.77;;;12.30;99.90;;;;;;5066975;28;20255;-78
2024/02/22 02:23:00;;;;;;;1.70;1.60;;;12.40;99.90;;;;;;5064683;28;20246;-77
2024/02/22 02:25:30;;;;;;;3.00;1.85;;;12.50;99.90;;;;;;5072453;28;20295;-76
2024/02/22 02:27:57;;;;;;;4.22;1.73;;;12.50;99.90;;;;;;5077049;28;20278;-78
2024/02/22 02:30:28;;;;;;;3.05;1.50;;;12.50;99.90;;;;;;5057856;28;20247;-77
2024/02/22 02:33:04;;;;;;;2.42;1.65;;;12.50;99.90;;;;;;5057652;28;20224;-77
2024/02/22 02:35:37;;;;;;;1.75;1.52;;;12.60;99.90;;;;;;5072592;28;20227;-76
2024/02/22 02:38:05;;;;;;;2.70;1.60;;;12.50;99.90;;;;;;5064377;28;20240;-77
2024/02/22 02:40:36;;;;;;;1.60;1.50;;;12.60;99.90;;;;;;5067501;28;20224;-77
2024/02/22 02:43:06;;;;;;;2.15;1.50;;;12.60;99.90;;;;;;5070421;28;20224;-78
2024/02/22 02:45:33;;;;;;;6.00;2.10;;;12.70;99.90;;;;;;5060104;28;20296;-77
2024/02/22 02:48:01;;;;;;;3.42;1.70;;;12.70;99.90;;;;;;5049886;28;20234;-77
2024/02/22 02:50:30;;;;;;;3.40;2.15;;;12.70;99.90;;;;;;5032932;28;20236;-78
2024/02/22 02:52:58;;;;;;;1.60;1.50;;;12.80;99.90;;;;;;5058904;28;20220;-77
2024/02/22 02:55:26;;;;;;;4.28;2.95;;;12.80;99.90;;;;;;5073298;28;20249;-77
2024/02/22 02:57:55;;;;;;;2.67;1.35;;;12.80;99.90;;;;;;5081155;28;20626;-77
2024/02/22 03:00:22;;;;;;;2.17;1.43;;;12.80;99.90;;;;;;5066603;28;20271;-76
2024/02/22 03:02:50;;;;;;;3.00;1.50;;;12.70;99.90;;;;;;5062150;28;20471;-77
2024/02/22 03:05:17;;;;;;;2.47;1.47;;;12.70;99.90;;;;;;5071820;28;20311;-77
2024/02/22 03:07:44;;;;;;;3.22;2.03;;;12.70;99.90;;;;;;5072012;28;20561;-77
2024/02/22 03:10:11;;;;;;;3.65;1.83;;;12.70;99.90;;;;;;5071924;28;20220;-77
2024/02/22 03:12:40;;;;;;;5.43;2.50;;;12.70;99.90;;;;;;5072185;28;20248;-77
2024/02/22 03:15:10;;;;;;;2.58;1.50;;;12.70;99.90;;;;;;5072882;28;20227;-77
2024/02/22 03:17:37;;;;;;;2.63;2.15;;;12.80;99.90;;;;;;5072370;28;20551;-78
2024/02/22 03:20:17;;;;;;;3.72;1.73;;;12.80;99.90;;;;;;5061688;28;20642;-76
2024/02/22 03:22:44;;;;;;;3.85;1.50;;;12.80;99.90;;;;;;5070253;28;20695;-77
2024/02/22 03:25:23;;;;;;;2.75;1.40;;;12.80;99.90;;;;;;5072830;28;20224;-77
2024/02/22 03:27:50;;;;;;;1.48;1.38;;;12.80;99.90;;;;;;5062505;28;20293;-78
2024/02/22 03:30:27;;;;;;;2.50;2.03;;;12.80;99.90;;;;;;5076714;28;20228;-77
2024/02/22 03:32:55;;;;;;;1.90;1.80;;;12.80;99.90;;;;;;5069769;28;20236;-77
2024/02/22 03:35:25;;;;;;;1.40;1.25;;;12.70;99.90;;;;;;5055449;28;20228;-77
2024/02/22 03:37:55;;;;;;;2.03;1.40;;;12.60;99.90;;;;;;5045947;28;20231;-77
2024/02/22 03:40:22;;;;;;;2.65;1.42;;;12.60;99.90;;;;;;5056152;28;20242;-78
2024/02/22 03:42:49;;;;;;;2.33;1.77;;;12.50;99.90;;;;;;5065062;28;20234;-77
2024/02/22 03:45:16;;;;;;;2.25;1.50;;;12.50;99.90;;;;;;5065784;28;20684;-77
2024/02/22 03:47:44;;;;;;;3.10;1.52;;;12.50;99.90;;;;;;5075157;28;20224;-77
2024/02/22 03:50:14;;;;;;;3.13;1.77;;;12.50;99.90;;;;;;5075831;28;20239;-77
2024/02/22 03:52:42;;;;;;;6.15;4.95;;;12.40;99.90;;;;;;5075483;28;20220;-77
2024/02/22 03:55:10;;;;;;;4.47;2.13;;;12.50;99.90;;;;;;5066781;28;20294;-76
2024/02/22 03:57:37;;;;;;;1.83;1.50;;;12.60;99.90;;;;;;5077769;28;20224;-78
2024/02/22 04:00:09;;;;;;;1.98;1.83;;;12.60;99.90;;;;;;5094393;28;20227;-78
2024/02/22 04:02:53;;;;;;;2.63;2.42;;;12.70;99.90;;;;;;5078859;28;20239;-77
2024/02/22 04:05:32;;;;;;;2.38;1.65;;;12.60;99.90;;;;;;5076320;28;20216;-77
2024/02/22 04:08:02;;;;;;;1.60;1.50;;;12.50;99.90;;;;;;5076788;28;20224;-77
2024/02/22 04:10:31;;;;;;;2.35;1.80;;;12.50;99.90;;;;;;5070848;28;20215;-77
2024/02/22 04:12:58;;;;;;;4.80;4.32;;;12.50;99.90;;;;;;5075658;28;20322;-77
2024/02/22 04:15:30;;;;;;;2.47;1.80;;;12.50;99.90;;;;;;5092866;28;20215;-78
2024/02/22 04:17:59;;;;;;;7.53;5.75;;;12.50;99.90;;;;;;5095286;28;20396;-77
2024/02/22 04:20:26;;;;;;;3.08;2.15;;;12.50;99.90;;;;;;5094632;28;20223;-76
2024/02/22 04:22:53;;;;;;;5.25;1.80;;;12.50;99.90;;;;;;5085780;28;20670;-77
2024/02/22 04:25:24;;;;;;;3.63;2.13;;;12.40;99.90;;;;;;5077417;28;20652;-77
2024/02/22 04:27:51;;;;;;;8.90;5.75;;;12.40;99.90;;;;;;5089136;28;20220;-77
2024/02/22 04:30:19;;;;;;;1.67;1.58;;;12.40;99.90;;;;;;5076439;28;20250;-77
2024/02/22 04:32:47;;;;;;;3.28;1.95;;;12.40;99.90;;;;;;5095409;28;20230;-77
2024/02/22 04:35:16;;;;;;;1.80;1.40;;;12.40;99.90;;;;;;5093753;28;20231;-77
2024/02/22 04:37:45;;;;;;;4.20;3.80;;;12.20;99.90;;;;;;5082137;28;20661;-77
2024/02/22 04:40:13;;;;;;;1.85;1.40;;;12.30;99.90;;;;;;5093097;28;20302;-77
2024/02/22 04:42:40;;;;;;;3.80;1.70;;;12.30;99.90;;;;;;5086380;28;20219;-77
2024/02/22 04:45:08;;;;;;;1.92;1.60;;;12.30;99.90;;;;;;5095136;28;20315;-77
2024/02/22 04:47:37;;;;;;;2.35;2.00;;;12.20;99.90;;;;;;5094513;28;20548;-76
2024/02/22 04:50:04;;;;;;;4.57;4.13;;;12.20;99.90;;;;;;5095348;28;20227;-77
2024/02/22 04:52:34;;;;;;;3.42;3.13;;;12.20;99.90;;;;;;5093611;28;20246;-77
2024/02/22 04:55:08;;;;;;;2.28;1.60;;;12.20;99.90;;;;;;5094516;28;20233;-76
2024/02/22 04:57:35;;;;;;;2.03;1.65;;;12.20;99.90;;;;;;5093771;28;20223;-77
2024/02/22 05:00:04;;;;;;;4.18;2.95;;;12.30;99.90;;;;;;5086305;28;20250;-76
2024/02/22 05:02:31;;;;;;;20.55;11.52;;;12.30;99.90;;;;;;5093964;28;20242;-77
2024/02/22 05:05:01;;;;;;;5.10;3.95;;;12.30;99.90;;;;;;5094678;28;20216;-77
2024/02/22 05:07:29;;;;;;;5.10;3.63;;;12.30;99.90;;;;;;5077754;28;20231;-77
2024/02/22 05:10:01;;;;;;;2.25;2.05;;;12.30;99.90;;;;;;5050620;28;20229;-77
2024/02/22 05:12:28;;;;;;;1.65;1.55;;;12.40;99.90;;;;;;5063617;28;20220;-76
2024/02/22 05:14:55;;;;;;;4.55;3.85;;;12.30;99.90;;;;;;5087681;28;20230;-77
2024/02/22 05:17:22;;;;;;;1.65;1.33;;;12.40;99.90;;;;;;5094122;28;20229;-77
2024/02/22 05:19:49;;;;;;;2.42;1.45;;;12.40;99.90;;;;;;5094245;28;20223;-76
2024/02/22 05:22:16;;;;;;;3.63;2.55;;;12.30;99.90;;;;;;5084969;28;20231;-76
2024/02/22 05:24:43;;;;;;;3.53;2.70;;;12.30;99.90;;;;;;5092280;28;20242;-76
2024/02/22 05:27:12;;;;;;;2.67;1.40;;;12.30;99.90;;;;;;5093869;28;20280;-77
2024/02/22 05:29:39;;;;;;;3.33;2.85;;;12.30;99.90;;;;;;5082349;28;20684;-76
2024/02/22 05:32:06;;;;;;;2.58;1.88;;;12.30;99.90;;;;;;5092642;28;20251;-76
2024/02/22 05:34:37;;;;;;;2.03;1.83;;;12.40;99.90;;;;;;5086958;28;20825;-76
2024/02/22 05:37:08;;;;;;;1.90;1.60;;;12.40;99.90;;;;;;5082649;28;20232;-76
2024/02/22 05:39:36;;;;;;;2.67;1.73;;;12.30;99.90;;;;;;5073229;28;20220;-76
2024/02/22 05:44:38;;;;;;;2.45;1.90;;;12.30;99.90;;;;;;5270536;22;20219;-76
2024/02/22 05:47:06;;;;;;;1.60;1.40;;;12.30;99.90;;;;;;5023439;28;20230;-76
2024/02/22 05:49:33;;;;;;;1.73;1.60;;;12.30;99.90;;;;;;5020031;28;20222;-77
2024/02/22 05:52:00;;;;;;;10.00;8.52;;;12.30;99.90;;;;;;5037727;28;20221;-77
2024/02/22 05:54:27;;;;;;;1.70;1.35;;;12.30;99.90;;;;;;5014247;28;20617;-77
2024/02/22 05:56:54;;;;;;;2.13;1.90;;;12.20;99.90;;;;;;5017170;28;20221;-77
2024/02/22 05:59:21;;;;;;;1.75;1.35;;;12.20;99.90;;;;;;5030678;28;20222;-78
2024/02/22 06:01:49;;;;;;;2.53;2.33;;;12.20;99.90;;;;;;5003027;28;20218;-77
2024/02/22 06:04:17;;;;;;;20.48;12.95;;;12.20;99.90;;;;;;5012303;28;20245;-76
2024/02/22 06:06:44;;;;;;;2.90;1.60;;;12.20;99.90;;;;;;5013511;28;20308;-76
2024/02/22 06:09:11;;;;;;;2.22;1.95;;;12.20;99.90;;;;;;5011705;28;20229;-77
2024/02/22 06:11:39;;;;;;;2.13;1.85;;;12.10;99.90;;;;;;5012754;28;20221;-77
2024/02/22 06:14:06;;;;;;;4.47;1.90;;;12.10;99.90;;;;;;5004317;28;20645;-76
2024/02/22 06:16:37;;;;;;;2.47;1.70;;;12.20;99.90;;;;;;4993886;28;20286;-76
2024/02/22 06:19:05;;;;;;;3.13;2.53;;;12.20;99.90;;;;;;4993292;28;20249;-76
2024/02/22 06:21:32;;;;;;;3.58;3.22;;;12.20;99.90;;;;;;4994098;28;20257;-76
2024/02/22 06:24:00;;;;;;;6.05;5.45;;;12.20;99.90;;;;;;4993943;28;20230;-76
2024/02/22 06:26:32;;;;;;;6.55;4.53;;;12.20;99.90;;;;;;4993398;28;20222;-76
2024/02/22 06:29:03;;;;;;;3.47;2.95;;;12.10;99.90;;;;;;4993994;28;20689;-76
2024/02/22 06:31:33;;;;;;;2.85;2.20;;;12.10;99.90;;;;;;4993187;28;20245;-76
2024/02/22 06:34:02;;;;;;;5.72;2.50;;;12.10;99.90;;;;;;4993460;28;20233;-76
2024/02/22 06:36:30;;;;;;;7.80;4.15;;;12.10;99.90;;;;;;4982231;28;20593;-76
2024/02/22 06:38:57;;;;;;;3.15;1.92;;;12.10;99.90;;;;;;4992985;28;20226;-76
2024/02/22 06:41:26;;;;;;;6.95;4.78;;;12.10;99.90;;;;;;4999741;28;20236;-77
2024/02/22 06:43:56;;;;;;;2.95;2.40;;;12.20;99.90;;;;;;4997332;28;20226;-77
2024/02/22 06:46:27;;;;;;;4.00;2.30;;;12.20;99.90;;;;;;4989649;28;20549;-77
2024/02/22 06:48:57;;;;;;;2.20;2.00;;;12.10;99.90;;;;;;5002956;28;20293;-77
2024/02/22 06:51:24;;;;;;;2.40;2.20;;;12.20;99.90;;;;;;5010800;28;20230;-77
2024/02/22 06:57:12;;;;;;;4.75;3.75;;;12.20;99.90;;;;;;4941970;28;20770;-77
2024/02/22 06:59:39;;;;;;;3.47;3.17;;;12.20;99.90;;;;;;5010931;28;20226;-77
2024/02/22 07:02:07;;;;;;;3.53;3.17;;;12.20;99.90;;;;;;4994609;28;20234;-78
2024/02/22 07:04:34;;;;;;;4.22;3.75;;;12.20;99.90;;;;;;4997573;28;20233;-76
2024/02/22 07:07:01;;;;;;;8.55;6.47;;;12.20;99.90;;;;;;4997458;28;20233;-77
2024/02/22 07:09:29;;;;;;;5.45;4.80;;;12.20;99.90;;;;;;4996628;28;20228;-77
2024/02/22 07:12:00;;;;;;;3.88;3.35;;;12.20;99.90;;;;;;5000049;28;20714;-77
2024/02/22 07:15:18;;;;;;;3.17;2.20;;;12.20;99.90;;;;;;4997409;28;20301;-77
2024/02/22 07:17:46;;;;;;;3.08;2.00;;;12.10;99.90;;;;;;5003631;28;20221;-77
2024/02/22 07:20:19;;;;;;;3.80;2.10;;;12.10;99.90;;;;;;5002740;28;20684;-77
2024/02/22 07:22:47;;;;;;;1.92;1.83;;;12.10;99.90;;;;;;4997313;28;20399;-77
2024/02/22 07:28:21;;;;;;;2.72;2.35;;;12.00;99.90;;;;;;4980159;28;20563;-77
2024/02/22 07:30:54;;;;;;;1.70;1.60;;;12.00;99.90;;;;;;5016438;28;20244;-77
2024/02/22 07:33:22;;;;;;;2.92;1.92;;;11.90;99.90;;;;;;5015821;28;20230;-77
2024/02/22 07:35:50;;;;;;;3.83;3.53;;;11.90;99.90;;;;;;5016371;28;20570;-77
2024/02/22 07:38:17;;;;;;;4.43;4.10;;;11.90;99.90;;;;;;5004335;28;20239;-77
2024/02/22 07:40:45;;;;;;;2.55;2.35;;;12.00;99.90;;;;;;4986576;28;20223;-77
2024/02/22 07:43:15;;;;;;;2.08;1.85;;;11.90;99.90;;;;;;4996037;28;20246;-77
2024/02/22 07:45:44;;;;;;;1.60;1.50;;;11.90;99.90;;;;;;4996598;28;20242;-77
2024/02/22 07:48:12;;;;;;;2.30;2.10;;;11.90;99.90;;;;;;4997096;28;20618;-77
2024/02/22 07:50:57;;;;;;;2.88;1.92;;;11.90;99.90;;;;;;4996781;28;20261;-77
2024/02/22 07:53:45;;;;;;;1.95;1.85;;;11.90;99.90;;;;;;4996392;28;20250;-76
2024/02/22 07:56:13;;;;;;;2.58;1.95;;;11.90;99.90;;;;;;4995200;28;20244;-76
2024/02/22 07:58:48;;;;;;;2.45;2.00;;;11.90;99.90;;;;;;4996437;28;20254;-76
2024/02/22 08:01:15;;;;;;;2.50;2.30;;;11.90;99.90;;;;;;4996611;28;20237;-76
2024/02/22 08:03:48;;;;;;;2.67;1.85;;;11.90;99.90;;;;;;4996443;28;20238;-76
2024/02/22 08:06:18;;;;;;;2.00;1.80;;;11.90;99.90;;;;;;4996258;28;20226;-77
2024/02/22 08:08:46;;;;;;;2.72;1.95;;;11.90;99.90;;;;;;4996283;28;20318;-76
2024/02/22 08:11:15;;;;;;;2.63;2.42;;;11.90;99.90;;;;;;4996490;28;20226;-76
2024/02/22 08:13:44;;;;;;;2.40;2.20;;;11.90;99.90;;;;;;5004350;28;20232;-76
2024/02/22 08:16:14;;;;;;;2.13;2.03;;;11.90;99.90;;;;;;4993228;28;20242;-77
2024/02/22 08:18:41;;;;;;;1.90;1.80;;;11.90;99.90;;;;;;4994437;28;20230;-77
2024/02/22 08:21:08;;;;;;;2.75;2.10;;;11.90;99.90;;;;;;4988286;28;20308;-77
2024/02/22 08:23:35;;;;;;;3.15;2.33;;;11.90;99.90;;;;;;5008854;28;20230;-77
2024/02/22 08:26:02;;;;;;;2.53;2.25;;;11.90;99.90;;;;;;5016259;28;20559;-77
2024/02/22 08:28:32;;;;;;;2.22;2.03;;;11.90;99.90;;;;;;4999195;28;20252;-77
2024/02/22 08:31:00;;;;;;;2.83;2.30;;;11.90;99.90;;;;;;4996998;28;20235;-77
2024/02/22 08:33:27;;;;;;;4.55;3.72;;;11.90;99.90;;;;;;4996353;28;20696;-77
2024/02/22 08:35:58;;;;;;;3.75;2.63;;;11.90;99.90;;;;;;5015085;28;20574;-77
2024/02/22 08:38:25;;;;;;;4.22;3.00;;;11.90;99.90;;;;;;5015625;28;20236;-77
2024/02/22 08:40:52;;;;;;;3.72;2.55;;;12.00;99.90;;;;;;5014982;28;20226;-77
2024/02/22 08:43:35;;;;;;;;;;;;;;;;;;;;;
2024/02/22 08:46:03;;;;;;;3.00;2.25;;;12.00;99.90;;;;;;5014924;28;20222;-77
2024/02/22 08:48:32;;;;;;;2.70;2.50;;;11.90;99.90;;;;;;5015680;28;20308;-77
2024/02/22 08:50:59;;;;;;;2.03;1.92;;;11.90;99.90;;;;;;5014883;28;20260;-77
2024/02/22 08:53:26;;;;;;;2.33;2.13;;;11.90;99.90;;;;;;4996983;28;20235;-76
2024/02/22 08:55:53;;;;;;;2.90;2.70;;;12.00;99.90;;;;;;4986918;28;20250;-77
2024/02/22 08:58:20;;;;;;;4.07;3.70;;;11.90;99.90;;;;;;4995913;28;20229;-77
2024/02/22 09:00:47;;;;;;;4.97;4.35;;;12.00;99.90;;;;;;4994720;28;20219;-77
2024/02/22 09:03:16;;;;;;;3.60;3.30;;;12.00;99.90;;;;;;4995714;28;20235;-77
2024/02/22 09:05:44;;;;;;;9.20;6.38;;;12.00;99.90;;;;;;4986487;28;20226;-76
2024/02/22 09:08:11;;;;;;;5.22;3.85;;;12.00;99.90;;;;;;4995271;28;20306;-76
2024/02/22 09:10:41;;;;;;;4.13;2.83;;;12.00;99.90;;;;;;4995398;28;20227;-77
2024/02/22 09:13:17;;;;;;;3.35;2.40;;;11.90;99.90;;;;;;4992262;28;20261;-77
2024/02/22 09:15:49;;;;;;;2.75;2.55;;;11.90;99.90;;;;;;4995718;28;20569;-76
2024/02/22 09:18:18;;;;;;;4.00;3.40;;;11.90;99.90;;;;;;5000329;28;20285;-76
2024/02/22 09:20:46;;;;;;;3.60;3.28;;;12.00;99.90;;;;;;5009635;28;20222;-76
2024/02/22 09:23:23;;;;;;;3.28;2.67;;;12.00;99.90;;;;;;4985050;28;20317;-76
2024/02/22 09:25:52;;;;;;;3.03;2.75;;;12.00;99.90;;;;;;5001297;28;20229;-76
2024/02/22 09:28:19;;;;;;;2.47;2.28;;;12.10;99.90;;;;;;4993787;28;20296;-76
2024/02/22 09:30:46;;;;;;;2.83;2.63;;;12.10;99.90;;;;;;4994602;28;20222;-76
2024/02/22 09:33:16;;;;;;;3.45;3.10;;;12.00;99.90;;;;;;4985546;28;20681;-77
2024/02/22 09:35:46;;;;;;;2.83;2.63;;;12.00;99.90;;;;;;4994605;28;20227;-77
2024/02/22 09:38:13;;;;;;;2.13;1.98;;;12.00;99.90;;;;;;4993282;28;20230;-76
2024/02/22 09:40:40;;;;;;;2.42;2.22;;;12.00;99.90;;;;;;5001384;28;20281;-76
2024/02/22 09:43:08;;;;;;;2.90;2.70;;;12.00;99.90;;;;;;4999926;28;20226;-75
2024/02/22 09:45:35;;;;;;;2.58;2.40;;;12.00;99.90;;;;;;4977973;28;20215;-76
2024/02/22 09:48:02;;;;;;;2.75;2.55;;;12.00;99.90;;;;;;4994948;28;20226;-77
2024/02/22 09:50:32;;;;;;;2.63;2.42;;;12.10;99.90;;;;;;4993673;28;20258;-77
2024/02/22 09:53:02;;;;;;;3.67;2.97;;;12.10;99.90;;;;;;4994969;28;20757;-77
2024/02/22 09:55:31;;;;;;;3.25;3.05;;;12.10;99.90;;;;;;4993984;28;20237;-77
2024/02/22 09:58:01;;;;;;;3.40;3.20;;;12.10;99.90;;;;;;4994639;28;20237;-76
2024/02/22 10:00:29;;;;;;;3.67;3.40;;;12.10;99.90;;;;;;4994394;28;20269;-77
2024/02/22 10:02:56;;;;;;;3.40;3.17;;;12.10;99.90;;;;;;4989003;28;20230;-77
2024/02/22 10:05:39;;;;;;;3.00;2.70;;;12.20;99.90;;;;;;4995442;28;20223;-76
2024/02/22 10:08:15;;;;;;;3.03;2.75;;;12.30;99.90;;;;;;4994619;28;20683;-77
2024/02/22 10:10:44;;;;;;;3.03;2.70;;;12.20;99.90;;;;;;4993783;28;20234;-77
2024/02/22 10:13:21;;;;;;;5.22;4.72;;;12.30;99.90;;;;;;4994547;28;20684;-76
2024/02/22 10:15:48;;;;;;;3.60;3.30;;;12.30;99.90;;;;;;4994191;28;20227;-76
2024/02/22 10:18:24;;;;;;;3.08;2.88;;;12.30;99.90;;;;;;4994438;28;20223;-76
2024/02/22 10:20:59;;;;;;;3.90;3.60;;;12.30;99.90;;;;;;4993922;28;20218;-76
2024/02/22 10:23:27;;;;;;;5.75;4.90;;;12.40;99.90;;;;;;4994313;28;20226;-77
2024/02/22 10:26:03;;;;;;;3.50;3.20;;;12.40;99.90;;;;;;4994110;28;20270;-76
2024/02/22 10:28:31;;;;;;;3.42;3.22;;;12.30;99.90;;;;;;4993780;28;20246;-77
2024/02/22 10:31:03;;;;;;;4.20;3.88;;;12.30;99.90;;;;;;4993833;28;20230;-76
2024/02/22 10:33:31;;;;;;;4.68;4.28;;;12.30;99.90;;;;;;4994041;28;20305;-76
2024/02/22 10:36:00;;;;;;;2.83;2.63;;;12.40;99.90;;;;;;4993430;28;20226;-76
2024/02/22 10:38:36;;;;;;;2.65;2.45;;;12.40;99.90;;;;;;4990085;28;20241;-76
2024/02/22 10:41:11;;;;;;;2.35;2.15;;;12.40;99.90;;;;;;4993932;28;20648;-76
2024/02/22 10:43:40;;;;;;;4.13;2.45;;;12.50;99.90;;;;;;4985345;28;20242;-76
2024/02/22 10:46:12;;;;;;;2.28;2.08;;;12.50;99.90;;;;;;4995354;28;20252;-76
2024/02/22 10:51:45;;;;;;;2.55;2.35;;;12.50;99.90;;;;;;4991887;28;20230;-76
2024/02/22 10:54:26;;;;;;;2.50;2.30;;;12.60;99.90;;;;;;4993301;28;20234;-76
2024/02/22 10:57:02;;;;;;;4.70;3.10;;;12.60;99.90;;;;;;4973697;28;20231;-76
2024/02/22 10:59:39;;;;;;;2.25;2.10;;;12.70;99.90;;;;;;4974452;28;20306;-76
2024/02/22 11:02:07;;;;;;;3.10;2.90;;;12.70;99.90;;;;;;4994093;28;20222;-76
2024/02/22 11:04:34;;;;;;;3.50;3.20;;;12.80;99.90;;;;;;4982867;28;20236;-77
2024/02/22 11:07:07;;;;;;;2.25;2.15;;;12.80;99.90;;;;;;4984068;28;20226;-77
2024/02/22 11:09:41;;;;;;;2.40;2.17;;;12.80;99.90;;;;;;4992766;28;20230;-77
2024/02/22 11:12:11;;;;;;;3.17;2.72;;;12.90;99.90;;;;;;4993551;28;20312;-76
2024/02/22 11:15:14;;;;;;;3.20;3.00;;;12.90;99.90;;;;;;4982638;28;20232;-77
2024/02/22 11:17:52;;;;;;;2.67;2.50;;;12.90;99.90;;;;;;4983177;28;20826;-76
2024/02/22 11:20:39;;;;;;;2.70;2.50;;;12.90;99.90;;;;;;4992165;28;20687;-76
2024/02/22 11:23:19;;;;;;;3.95;3.65;;;13.00;99.90;;;;;;4992803;28;20677;-77
2024/02/22 11:25:48;;;;;;;3.08;2.25;;;13.10;99.90;;;;;;4983476;28;20354;-76
2024/02/22 11:28:15;;;;;;;2.00;1.90;;;13.20;99.90;;;;;;4981779;28;20301;-76
2024/02/22 11:30:48;;;;;;;5.75;4.90;;;13.20;99.90;;;;;;4981889;28;20223;-76
2024/02/22 11:33:21;;;;;;;2.40;2.30;;;13.20;99.90;;;;;;4992820;28;20231;-76
2024/02/22 11:38:45;;;;;;;2.30;1.97;;;13.20;99.90;;;;;;4982901;28;20219;-77
2024/02/22 11:41:19;;;;;;;2.20;1.88;;;13.20;99.90;;;;;;4992775;28;20475;-77
2024/02/22 11:43:55;;;;;;;2.20;2.00;;;13.30;99.90;;;;;;4992671;28;20242;-77
2024/02/22 11:46:22;;;;;;;5.35;4.95;;;13.40;99.90;;;;;;4992597;28;20499;-77
2024/02/22 11:48:53;;;;;;;4.00;3.70;;;13.30;99.90;;;;;;4997568;28;20272;-77
2024/02/22 11:54:54;;;;;;;4.47;4.17;;;13.30;99.90;;;;;;4946924;28;20483;-77
2024/02/22 11:57:24;;;;;;;3.63;3.33;;;13.30;99.90;;;;;;4996704;28;20462;-77
2024/02/22 12:00:09;;;;;;;3.35;3.10;;;13.40;99.90;;;;;;4985974;28;20481;-77
2024/02/22 12:02:37;;;;;;;3.63;3.30;;;13.30;99.90;;;;;;4994424;28;20227;-77
2024/02/22 12:05:10;;;;;;;2.40;2.20;;;13.30;99.90;;;;;;4993052;28;20553;-77
2024/02/22 12:08:02;;;;;;;2.30;2.10;;;13.20;99.90;;;;;;4995881;28;20241;-77
2024/02/22 12:11:28;;;;;;;2.78;2.40;;;13.20;99.90;;;;;;4996468;28;20227;-77
2024/02/22 12:13:58;;;;;;;2.40;2.20;;;13.10;99.90;;;;;;5003532;28;20218;-77
2024/02/22 12:16:27;;;;;;;2.30;2.20;;;13.20;99.90;;;;;;5011537;28;20310;-77
2024/02/22 12:18:57;;;;;;;2.90;2.70;;;13.10;99.90;;;;;;4995816;28;20466;-76
2024/02/22 12:24:07;;;;;;;2.73;2.50;;;13.20;99.90;;;;;;4988687;28;20234;-77
2024/02/22 12:26:40;;;;;;;2.03;1.93;;;13.30;99.90;;;;;;4996141;28;20488;-77
2024/02/22 12:29:09;;;;;;;3.00;2.20;;;13.30;99.90;;;;;;4995542;28;20484;-77
2024/02/22 12:31:38;;;;;;;4.07;2.27;;;13.40;99.90;;;;;;4996058;28;21008;-77
2024/02/22 12:34:06;;;;;;;2.27;2.07;;;13.40;99.90;;;;;;4981915;28;20466;-77
2024/02/22 12:36:45;;;;;;;2.23;2.10;;;13.40;99.90;;;;;;4996037;28;20505;-77
2024/02/22 12:39:15;;;;;;;2.88;2.10;;;13.50;99.90;;;;;;4995532;28;20580;-77
2024/02/22 12:41:42;;;;;;;3.20;2.10;;;13.50;99.90;;;;;;4996361;28;20237;-76
2024/02/22 12:47:16;;;;;;;2.00;1.90;;;13.30;99.90;;;;;;4986805;28;20460;-77
2024/02/22 12:49:44;;;;;;;2.90;2.60;;;13.40;99.90;;;;;;5014717;28;20505;-77
2024/02/22 12:52:12;;;;;;;2.23;2.10;;;13.40;99.90;;;;;;5013405;28;20253;-78
2024/02/22 12:54:39;;;;;;;2.10;1.65;;;13.40;99.90;;;;;;4995579;28;20502;-78
2024/02/22 12:57:08;;;;;;;1.90;1.80;;;13.40;99.90;;;;;;4995226;28;20309;-77
2024/02/22 12:59:40;;;;;;;3.23;2.40;;;13.40;99.90;;;;;;4996037;28;20473;-78
2024/02/22 13:02:15;;;;;;;3.47;2.83;;;13.40;99.90;;;;;;4994756;28;20490;-78
2024/02/22 13:04:45;;;;;;;2.93;2.57;;;13.50;99.90;;;;;;5000771;28;20478;-77
2024/02/22 13:07:15;;;;;;;1.93;1.83;;;13.50;99.90;;;;;;4994884;28;20470;-78
2024/02/22 13:10:06;;;;;;;2.40;2.20;;;13.50;99.90;;;;;;4987550;28;20803;-77
2024/02/22 13:12:41;;;;;;;3.27;3.00;;;13.60;99.90;;;;;;5006363;28;20469;-76
2024/02/22 13:15:17;;;;;;;3.83;3.53;;;13.50;99.90;;;;;;5014736;28;20507;-76
2024/02/22 13:17:45;;;;;;;3.10;2.90;;;13.60;99.90;;;;;;5015448;28;20222;-76
2024/02/22 13:20:18;;;;;;;4.70;2.83;;;13.60;99.90;;;;;;4992997;28;20989;-75
2024/02/22 13:22:49;;;;;;;3.43;3.07;;;13.60;99.90;;;;;;5006639;28;20560;-77
2024/02/22 13:25:16;;;;;;;3.43;3.13;;;13.70;99.90;;;;;;5014739;28;20465;-77
2024/02/22 13:31:00;;;;;;;1.67;1.57;;;13.70;99.90;;;;;;5014514;28;20919;-78